Time;durP1;ratioP1;P1;durP2;ratioP2;P2;SDS_P1;SDS_P2;PMS_P1;PMS_P2;Temp;Humidity;BMP_temperature;BMP_pressure;BME280_temperature;BME280_humidity;BME280_pressure;Samples;Min_cycle;Max_cycle;Signal;HPM_P1;HPM_P2
2022/02/01 00:03:57;;;;;;;3.08;2.22;;;;;;;;;;4304219;33;20103;-64
2022/02/01 00:06:58;;;;;;;2.40;2.20;;;;;;;;;;4374365;32;20159;-64
2022/02/01 00:09:24;;;;;;;2.80;2.37;;;;;;;;;;4375989;32;20156;-64
2022/02/01 00:14:54;;;;;;;3.65;2.30;;;;;;;;;;4377219;32;20516;-64
2022/02/01 00:18:15;;;;;;;3.55;2.10;;;;;;;;;;4378187;32;20089;-64
2022/02/01 00:33:04;;;;;;;3.50;2.50;;;;;;;;;;4371005;32;20204;-63
2022/02/01 00:36:37;;;;;;;2.78;2.25;;;;;;;;;;4377515;32;20521;-63
2022/02/01 00:39:09;;;;;;;3.45;2.30;;;;;;;;;;4376152;32;20503;-63
2022/02/01 00:41:42;;;;;;;3.58;2.50;;;;;;;;;;4375960;32;20571;-64
2022/02/01 00:44:09;;;;;;;3.78;2.35;;;;;;;;;;4376363;32;20155;-64
2022/02/01 00:46:35;;;;;;;3.37;2.47;;;;;;;;;;4375955;32;20525;-65
2022/02/01 00:49:02;;;;;;;2.47;2.15;;;;;;;;;;4376205;32;20183;-64
2022/02/01 00:51:29;;;;;;;2.83;2.05;;;;;;;;;;4377758;32;20158;-63
2022/02/01 00:53:56;;;;;;;2.67;2.10;;;;;;;;;;4377432;32;20093;-63
2022/02/01 00:56:22;;;;;;;4.25;2.53;;;;;;;;;;4377606;32;20084;-63
2022/02/01 00:58:49;;;;;;;2.78;2.08;;;;;;;;;;4363277;32;20553;-63
2022/02/01 01:01:16;;;;;;;2.75;2.15;;;;;;;;;;4363703;32;20085;-64
2022/02/01 01:03:44;;;;;;;3.58;3.00;;;;;;;;;;4376032;32;20086;-64
2022/02/01 01:06:12;;;;;;;2.50;2.05;;;;;;;;;;4377944;32;20442;-64
2022/02/01 01:08:40;;;;;;;2.70;2.20;;;;;;;;;;4377196;32;20092;-63
2022/02/01 01:11:07;;;;;;;3.62;2.55;;;;;;;;;;4375935;32;20073;-63
2022/02/01 01:54:08;;;;;;;2.37;1.60;;;;;;;;;;4375615;32;20097;-63
2022/02/01 01:56:35;;;;;;;2.80;2.00;;;;;;;;;;4376786;32;20082;-64
2022/02/01 01:59:04;;;;;;;2.50;2.00;;;;;;;;;;4376617;32;20062;-64
2022/02/01 02:01:32;;;;;;;2.20;1.73;;;;;;;;;;4362482;32;20070;-63
2022/02/01 02:03:59;;;;;;;3.12;1.98;;;;;;;;;;4375104;32;20069;-63
2022/02/01 02:06:26;;;;;;;2.60;1.80;;;;;;;;;;4374870;32;20081;-63
2022/02/01 02:08:54;;;;;;;2.72;2.22;;;;;;;;;;4376260;32;20102;-64
2022/02/01 02:12:06;;;;;;;2.10;1.85;;;;;;;;;;4376473;32;20068;-64
2022/02/01 02:14:18;;;;;;;3.42;2.00;;;;;;;;;;4373564;32;20078;-63
2022/02/01 02:16:59;;;;;;;2.37;1.80;;;;;;;;;;4374846;32;20534;-64
2022/02/01 02:19:28;;;;;;;2.45;1.90;;;;;;;;;;4374684;32;20066;-63
2022/02/01 02:22:05;;;;;;;2.53;2.00;;;;;;;;;;4374695;32;20102;-64
2022/02/01 02:24:41;;;;;;;3.62;2.30;;;;;;;;;;4362262;32;20468;-64
2022/02/01 02:27:08;;;;;;;2.40;1.83;;;;;;;;;;4376304;32;20101;-65
2022/02/01 02:29:35;;;;;;;2.50;1.90;;;;;;;;;;4387629;32;20217;-65
2022/02/01 02:32:04;;;;;;;2.20;1.83;;;;;;;;;;4375113;32;20093;-63
2022/02/01 02:34:31;;;;;;;2.60;1.87;;;;;;;;;;4362894;32;20459;-63
2022/02/01 02:37:01;;;;;;;2.92;1.83;;;;;;;;;;4362645;32;20074;-63
2022/02/01 02:39:34;;;;;;;2.15;1.87;;;;;;;;;;4362449;32;20077;-64
2022/02/01 02:42:14;;;;;;;2.55;2.05;;;;;;;;;;4375322;32;20577;-63
2022/02/01 02:47:29;;;;;;;3.03;2.17;;;;;;;;;;4387237;32;20085;-64
2022/02/01 02:49:56;;;;;;;2.42;2.00;;;;;;;;;;4374547;32;20469;-63
2022/02/01 02:52:26;;;;;;;2.97;2.20;;;;;;;;;;4375152;32;20067;-66
2022/02/01 02:54:56;;;;;;;2.90;2.10;;;;;;;;;;4374617;32;20100;-63
2022/02/01 02:57:23;;;;;;;2.78;1.87;;;;;;;;;;4376114;32;20098;-63
2022/02/01 02:59:49;;;;;;;3.50;2.35;;;;;;;;;;4362764;32;20089;-65
2022/02/01 03:02:16;;;;;;;3.20;2.10;;;;;;;;;;4374502;32;20082;-63
2022/02/01 03:04:43;;;;;;;3.08;2.40;;;;;;;;;;4362699;32;20078;-63
2022/02/01 03:07:10;;;;;;;3.65;2.78;;;;;;;;;;4374352;32;20602;-63
2022/02/01 03:09:40;;;;;;;3.58;2.85;;;;;;;;;;4374710;32;20171;-64
2022/02/01 03:12:14;;;;;;;4.00;2.60;;;;;;;;;;4363058;32;20081;-65
2022/02/01 03:14:57;;;;;;;3.47;2.33;;;;;;;;;;4374883;32;20154;-65
2022/02/01 03:19:49;;;;;;;3.75;2.78;;;;;;;;;;4374368;32;20077;-65
2022/02/01 03:20:16;;;;;;;6.40;3.25;;;;;;;;;;4375547;32;20090;-63
2022/02/01 03:22:43;;;;;;;3.97;2.87;;;;;;;;;;4362085;32;20464;-64
2022/02/01 03:25:11;;;;;;;4.03;3.00;;;;;;;;;;4362252;32;20500;-64
2022/02/01 03:27:38;;;;;;;4.62;3.00;;;;;;;;;;4362514;32;20071;-63
2022/02/01 03:30:05;;;;;;;4.40;2.90;;;;;;;;;;4374172;32;20452;-63
2022/02/01 03:32:31;;;;;;;4.65;3.05;;;;;;;;;;4376215;32;20074;-64
2022/02/01 03:34:58;;;;;;;5.47;4.15;;;;;;;;;;4374997;32;20152;-62
2022/02/01 03:37:25;;;;;;;5.35;3.85;;;;;;;;;;4374405;32;20098;-64
2022/02/01 03:39:51;;;;;;;5.53;4.10;;;;;;;;;;4386935;32;20074;-63
2022/02/01 03:42:20;;;;;;;5.20;3.60;;;;;;;;;;4374038;32;20472;-65
2022/02/01 03:44:47;;;;;;;5.62;3.45;;;;;;;;;;4377351;32;20097;-64
2022/02/01 03:47:13;;;;;;;5.00;3.50;;;;;;;;;;4377255;32;20132;-64
2022/02/01 03:49:41;;;;;;;6.28;4.37;;;;;;;;;;4377076;32;20086;-64
2022/02/01 03:52:09;;;;;;;5.90;3.95;;;;;;;;;;4378197;32;20078;-63
2022/02/01 03:54:37;;;;;;;5.47;3.70;;;;;;;;;;4377288;32;20164;-65
2022/02/01 03:57:06;;;;;;;4.62;3.55;;;;;;;;;;4378298;32;20073;-63
2022/02/01 03:59:33;;;;;;;7.07;4.40;;;;;;;;;;4364101;32;20536;-64
2022/02/01 04:02:01;;;;;;;6.78;4.37;;;;;;;;;;4376458;32;20517;-63
2022/02/01 04:04:31;;;;;;;5.93;4.37;;;;;;;;;;4377125;32;20077;-63
2022/02/01 04:06:58;;;;;;;6.55;4.20;;;;;;;;;;4376639;32;20528;-63
2022/02/01 04:09:26;;;;;;;7.10;4.53;;;;;;;;;;4364227;32;20093;-64
2022/02/01 04:11:55;;;;;;;7.25;4.12;;;;;;;;;;4378406;32;20086;-64
2022/02/01 04:14:26;;;;;;;7.00;4.62;;;;;;;;;;4377386;32;20087;-63
2022/02/01 04:16:52;;;;;;;6.35;4.03;;;;;;;;;;4365618;32;20098;-63
2022/02/01 04:19:20;;;;;;;7.37;5.20;;;;;;;;;;4379339;32;20074;-64
2022/02/01 04:22:01;;;;;;;7.18;4.72;;;;;;;;;;4382207;32;20142;-63
2022/02/01 04:24:32;;;;;;;6.93;4.50;;;;;;;;;;4382807;32;20562;-63
2022/02/01 04:26:59;;;;;;;6.80;5.12;;;;;;;;;;4370907;32;20078;-64
2022/02/01 04:29:26;;;;;;;7.32;5.30;;;;;;;;;;4385067;32;20136;-63
2022/02/01 04:31:53;;;;;;;6.80;4.90;;;;;;;;;;4367520;32;20093;-65
2022/02/01 04:34:19;;;;;;;8.20;5.43;;;;;;;;;;4379106;32;20081;-62
2022/02/01 04:36:46;;;;;;;8.10;5.10;;;;;;;;;;4376756;32;20081;-62
2022/02/01 04:39:13;;;;;;;7.68;4.45;;;;;;;;;;4378025;32;20165;-64
2022/02/01 04:41:40;;;;;;;7.70;4.60;;;;;;;;;;4376315;32;20070;-63
2022/02/01 04:44:07;;;;;;;7.22;4.72;;;;;;;;;;4377140;32;20166;-65
2022/02/01 04:46:34;;;;;;;7.22;5.10;;;;;;;;;;4376184;32;20178;-64
2022/02/01 04:49:07;;;;;;;8.27;4.68;;;;;;;;;;4377465;32;20124;-64
2022/02/01 04:51:33;;;;;;;9.73;4.50;;;;;;;;;;4376770;32;20078;-65
2022/02/01 04:54:00;;;;;;;6.93;4.68;;;;;;;;;;4375752;32;20537;-65
2022/02/01 04:56:27;;;;;;;6.87;4.70;;;;;;;;;;4363994;32;20093;-63
2022/02/01 04:58:54;;;;;;;6.45;4.82;;;;;;;;;;4376130;32;20147;-64
2022/02/01 05:01:28;;;;;;;7.95;5.00;;;;;;;;;;4363896;32;20085;-63
2022/02/01 05:03:54;;;;;;;8.00;4.82;;;;;;;;;;4378360;32;20142;-65
2022/02/01 05:06:22;;;;;;;8.05;4.53;;;;;;;;;;4377984;32;20078;-64
2022/02/01 05:08:49;;;;;;;8.70;5.05;;;;;;;;;;4377536;32;20082;-63
2022/02/01 05:11:15;;;;;;;8.65;4.78;;;;;;;;;;4375900;32;20070;-63
2022/02/01 05:14:09;;;;;;;8.63;4.93;;;;;;;;;;4376033;32;20150;-63
2022/02/01 05:17:11;;;;;;;7.37;4.85;;;;;;;;;;4387927;32;20162;-63
2022/02/01 05:19:48;;;;;;;7.60;4.82;;;;;;;;;;4374252;32;20098;-63
2022/02/01 05:22:14;;;;;;;8.57;5.72;;;;;;;;;;4375865;32;20089;-63
2022/02/01 05:24:42;;;;;;;7.87;5.12;;;;;;;;;;4375606;32;20453;-64
2022/02/01 05:27:12;;;;;;;7.72;4.82;;;;;;;;;;4376083;32;20078;-63
2022/02/01 05:29:39;;;;;;;8.02;5.05;;;;;;;;;;4388251;32;20069;-63
2022/02/01 05:32:22;;;;;;;9.20;5.03;;;;;;;;;;4362828;32;20535;-63
2022/02/01 05:34:53;;;;;;;7.05;5.30;;;;;;;;;;4377215;32;20459;-64
2022/02/01 05:37:20;;;;;;;8.48;4.93;;;;;;;;;;4375192;32;20103;-64
2022/02/01 05:39:47;;;;;;;8.63;4.50;;;;;;;;;;4375403;32;20512;-64
2022/02/01 05:42:18;;;;;;;7.55;4.57;;;;;;;;;;4363320;32;20171;-63
2022/02/01 05:44:45;;;;;;;7.95;4.78;;;;;;;;;;4376949;32;20169;-63
2022/02/01 05:47:14;;;;;;;8.88;5.10;;;;;;;;;;4363107;32;20105;-62
2022/02/01 05:49:42;;;;;;;7.75;4.82;;;;;;;;;;4387678;32;20066;-63
2022/02/01 05:52:09;;;;;;;9.93;4.70;;;;;;;;;;4375140;32;20078;-63
2022/02/01 05:54:37;;;;;;;7.37;4.10;;;;;;;;;;4375921;32;20436;-64
2022/02/01 05:57:05;;;;;;;6.85;4.30;;;;;;;;;;4375335;32;20158;-63
2022/02/01 05:59:31;;;;;;;8.80;4.70;;;;;;;;;;4375243;32;20074;-63
2022/02/01 06:02:00;;;;;;;8.00;4.30;;;;;;;;;;4376064;32;20464;-65
2022/02/01 06:04:26;;;;;;;7.70;4.28;;;;;;;;;;4376921;32;20177;-63
2022/02/01 06:06:53;;;;;;;6.57;4.03;;;;;;;;;;4362370;32;20096;-64
2022/02/01 06:09:20;;;;;;;7.72;4.47;;;;;;;;;;4375153;32;20625;-64
2022/02/01 06:11:46;;;;;;;6.80;3.22;;;;;;;;;;4362637;32;20074;-65
2022/02/01 06:14:13;;;;;;;7.12;4.28;;;;;;;;;;4363073;32;20491;-64
2022/02/01 06:16:40;;;;;;;7.22;4.35;;;;;;;;;;4374623;32;20279;-63
2022/02/01 06:19:07;;;;;;;6.55;4.12;;;;;;;;;;4374939;32;20089;-65
2022/02/01 06:21:34;;;;;;;7.00;4.05;;;;;;;;;;4387015;32;20085;-64
2022/02/01 06:24:00;;;;;;;7.43;4.30;;;;;;;;;;4376125;32;20414;-64
2022/02/01 06:26:27;;;;;;;7.53;4.78;;;;;;;;;;4374664;32;20147;-64
2022/02/01 06:28:54;;;;;;;7.37;4.30;;;;;;;;;;4387368;32;20066;-64
2022/02/01 06:31:20;;;;;;;5.35;3.25;;;;;;;;;;4374801;32;20084;-63
2022/02/01 06:33:47;;;;;;;7.25;4.30;;;;;;;;;;4374597;32;20082;-62
2022/02/01 06:36:14;;;;;;;8.85;4.57;;;;;;;;;;4374859;32;20511;-63
2022/02/01 06:38:40;;;;;;;6.72;4.20;;;;;;;;;;4376037;32;20141;-63
2022/02/01 06:41:07;;;;;;;7.72;4.37;;;;;;;;;;4374459;32;20144;-62
2022/02/01 06:43:34;;;;;;;7.32;4.62;;;;;;;;;;4362877;32;20075;-62
2022/02/01 06:46:00;;;;;;;7.55;4.90;;;;;;;;;;4374591;32;20516;-64
2022/02/01 06:48:27;;;;;;;7.95;4.87;;;;;;;;;;4374734;32;20083;-64
2022/02/01 06:50:54;;;;;;;8.38;4.70;;;;;;;;;;4362337;32;20078;-63
2022/02/01 06:53:22;;;;;;;8.68;5.12;;;;;;;;;;4374720;32;20172;-64
2022/02/01 06:58:46;;;;;;;7.12;4.87;;;;;;;;;;4372239;32;20069;-63
2022/02/01 07:01:12;;;;;;;6.62;4.53;;;;;;;;;;4386884;32;20509;-63
2022/02/01 07:03:39;;;;;;;7.50;5.20;;;;;;;;;;4374840;32;20182;-62
2022/02/01 07:06:11;;;;;;;8.13;5.35;;;;;;;;;;4377367;32;20500;-64
2022/02/01 07:08:43;;;;;;;7.55;4.80;;;;;;;;;;4376182;32;20061;-63
2022/02/01 07:11:11;;;;;;;8.18;5.03;;;;;;;;;;4375388;32;20065;-63
2022/02/01 07:13:38;;;;;;;7.95;5.32;;;;;;;;;;4361965;32;20090;-63
2022/02/01 07:16:05;;;;;;;8.88;5.45;;;;;;;;;;4374523;32;20092;-64
2022/02/01 07:18:32;;;;;;;7.55;4.68;;;;;;;;;;4362888;32;20074;-63
2022/02/01 07:20:59;;;;;;;8.52;5.20;;;;;;;;;;4379123;32;20078;-64
2022/02/01 07:23:27;;;;;;;7.53;4.57;;;;;;;;;;4379262;32;20094;-62
2022/02/01 07:25:55;;;;;;;9.23;5.62;;;;;;;;;;4390591;32;20077;-64
2022/02/01 07:28:24;;;;;;;9.93;5.03;;;;;;;;;;4378678;32;20075;-63
2022/02/01 07:30:51;;;;;;;7.47;5.20;;;;;;;;;;4376994;32;20070;-62
2022/02/01 07:33:19;;;;;;;8.52;5.65;;;;;;;;;;4377004;32;20070;-63
2022/02/01 07:35:47;;;;;;;7.75;5.45;;;;;;;;;;4377241;32;20080;-64
2022/02/01 07:38:19;;;;;;;8.23;4.95;;;;;;;;;;4378414;32;20077;-63
2022/02/01 07:40:46;;;;;;;8.43;5.50;;;;;;;;;;4377083;32;20560;-63
2022/02/01 07:43:14;;;;;;;8.45;5.53;;;;;;;;;;4376984;32;20066;-62
2022/02/01 07:45:43;;;;;;;8.88;6.10;;;;;;;;;;4364179;32;20579;-62
2022/02/01 07:48:10;;;;;;;9.90;5.95;;;;;;;;;;4364561;32;20591;-64
2022/02/01 07:50:39;;;;;;;8.88;5.57;;;;;;;;;;4364502;32;20081;-63
2022/02/01 07:53:07;;;;;;;8.20;5.53;;;;;;;;;;4377064;32;20519;-64
2022/02/01 07:55:35;;;;;;;8.75;6.28;;;;;;;;;;4377122;32;20089;-64
2022/02/01 07:58:02;;;;;;;8.77;5.55;;;;;;;;;;4376660;32;20654;-64
2022/02/01 08:00:31;;;;;;;9.18;5.53;;;;;;;;;;4376416;32;20086;-64
2022/02/01 08:02:57;;;;;;;8.15;5.60;;;;;;;;;;4376426;32;20082;-62
2022/02/01 08:05:29;;;;;;;8.95;6.30;;;;;;;;;;4376974;32;20074;-63
2022/02/01 08:07:56;;;;;;;9.25;6.00;;;;;;;;;;4364925;32;20059;-63
2022/02/01 08:10:25;;;;;;;10.07;5.62;;;;;;;;;;4377695;32;20074;-63
2022/02/01 08:20:53;;;;;;;8.45;5.00;;;;;;;;;;4376449;32;20077;-62
2022/02/01 08:23:20;;;;;;;9.18;4.95;;;;;;;;;;4365833;32;20166;-63
2022/02/01 08:25:48;;;;;;;7.35;5.03;;;;;;;;;;4377713;32;20094;-62
2022/02/01 08:28:16;;;;;;;7.95;4.80;;;;;;;;;;4364098;32;20504;-63
2022/02/01 08:30:43;;;;;;;7.87;5.07;;;;;;;;;;4363702;32;20087;-63
2022/02/01 08:33:09;;;;;;;7.45;4.97;;;;;;;;;;4376523;32;20086;-63
2022/02/01 08:35:37;;;;;;;7.43;4.60;;;;;;;;;;4376304;32;20089;-63
2022/02/01 08:38:04;;;;;;;6.72;4.05;;;;;;;;;;4376114;32;20155;-62
2022/02/01 08:40:30;;;;;;;6.43;4.10;;;;;;;;;;4376631;32;20070;-63
2022/02/01 08:42:57;;;;;;;6.47;3.90;;;;;;;;;;4363639;32;20123;-63
2022/02/01 08:45:25;;;;;;;6.97;4.18;;;;;;;;;;4376146;32;20077;-63
2022/02/01 08:47:54;;;;;;;5.45;3.85;;;;;;;;;;4363516;32;20170;-63
2022/02/01 08:50:26;;;;;;;7.80;4.10;;;;;;;;;;4375742;32;20058;-64
2022/02/01 08:52:56;;;;;;;6.97;4.90;;;;;;;;;;4376091;32;20055;-63
2022/02/01 08:55:50;;;;;;;6.60;4.32;;;;;;;;;;4388232;32;20112;-63
2022/02/01 08:58:17;;;;;;;5.90;4.18;;;;;;;;;;4376601;32;20069;-62
2022/02/01 09:00:44;;;;;;;7.12;4.47;;;;;;;;;;4375567;32;20082;-64
2022/02/01 09:03:20;;;;;;;6.85;4.90;;;;;;;;;;3842053;37;20679;-64
2022/02/01 09:05:51;;;;;;;5.85;4.43;;;;;;;;;;4378350;32;20096;-63
2022/02/01 09:08:20;;;;;;;6.53;3.95;;;;;;;;;;4378053;32;20086;-64
2022/02/01 09:10:47;;;;;;;6.57;4.65;;;;;;;;;;4377317;32;20082;-63
2022/02/01 09:13:14;;;;;;;6.00;3.72;;;;;;;;;;4404159;32;20080;-64
2022/02/01 09:15:40;;;;;;;6.18;4.35;;;;;;;;;;4390215;32;20082;-64
2022/02/01 09:18:07;;;;;;;6.55;4.50;;;;;;;;;;4404466;32;20153;-63
2022/02/01 09:20:34;;;;;;;6.03;4.10;;;;;;;;;;4390506;32;20487;-63
2022/02/01 09:23:02;;;;;;;5.68;3.70;;;;;;;;;;4377421;32;20519;-63
2022/02/01 09:25:29;;;;;;;7.10;4.03;;;;;;;;;;4377618;32;20084;-62
2022/02/01 09:27:55;;;;;;;7.30;4.20;;;;;;;;;;4377594;32;20550;-62
2022/02/01 09:30:22;;;;;;;8.23;4.60;;;;;;;;;;4403985;32;20070;-63
2022/02/01 09:32:49;;;;;;;6.28;4.35;;;;;;;;;;4377158;32;20074;-62
2022/02/01 09:35:16;;;;;;;7.95;4.68;;;;;;;;;;4377264;32;20441;-63
2022/02/01 09:37:43;;;;;;;6.45;4.15;;;;;;;;;;4377667;32;20078;-63
2022/02/01 09:40:10;;;;;;;6.07;4.07;;;;;;;;;;4377066;32;20173;-62
2022/02/01 09:42:38;;;;;;;6.05;3.92;;;;;;;;;;4364929;32;20064;-62
2022/02/01 09:45:06;;;;;;;6.62;4.45;;;;;;;;;;4377198;32;20082;-63
2022/02/01 09:47:44;;;;;;;6.57;4.10;;;;;;;;;;4377489;32;20097;-63
2022/02/01 09:50:11;;;;;;;6.72;5.20;;;;;;;;;;4387065;32;20129;-62
2022/02/01 09:52:39;;;;;;;5.78;3.55;;;;;;;;;;4415092;32;20496;-63
2022/02/01 09:55:07;;;;;;;8.25;4.05;;;;;;;;;;4400682;32;20081;-63
2022/02/01 09:57:34;;;;;;;6.47;4.05;;;;;;;;;;4408515;32;20090;-63
2022/02/01 10:00:02;;;;;;;5.68;4.15;;;;;;;;;;4389995;32;20077;-64
2022/02/01 10:02:38;;;;;;;6.87;4.80;;;;;;;;;;4376680;32;20097;-63
2022/02/01 10:05:10;;;;;;;6.97;3.95;;;;;;;;;;4389285;32;20158;-63
2022/02/01 10:07:59;;;;;;;7.85;4.25;;;;;;;;;;4389432;32;20085;-63
2022/02/01 10:10:30;;;;;;;5.97;3.78;;;;;;;;;;4376959;32;20135;-63
2022/02/01 10:13:18;;;;;;;6.95;4.15;;;;;;;;;;4387061;32;20159;-62
2022/02/01 10:16:02;;;;;;;7.37;4.60;;;;;;;;;;4393495;32;20089;-64
2022/02/01 10:18:33;;;;;;;7.10;4.55;;;;;;;;;;4367633;32;20078;-64
2022/02/01 10:21:14;;;;;;;6.62;4.40;;;;;;;;;;4367285;32;20085;-63
2022/02/01 10:23:45;;;;;;;6.03;4.07;;;;;;;;;;4379677;32;20077;-63
2022/02/01 10:26:30;;;;;;;7.80;4.80;;;;;;;;;;4379562;32;20150;-63
2022/02/01 10:29:05;;;;;;;6.50;4.20;;;;;;;;;;4379246;32;20069;-63
2022/02/01 10:31:52;;;;;;;6.27;3.90;;;;;;;;;;4367583;32;20089;-63
2022/02/01 10:34:38;;;;;;;5.78;4.28;;;;;;;;;;4381397;32;20176;-63
2022/02/01 10:37:23;;;;;;;6.15;4.22;;;;;;;;;;4366568;32;20493;-63
2022/02/01 10:39:58;;;;;;;5.82;4.40;;;;;;;;;;4379132;32;20071;-63
2022/02/01 10:42:26;;;;;;;7.05;4.70;;;;;;;;;;4392994;32;20074;-63
2022/02/01 10:44:54;;;;;;;6.65;4.28;;;;;;;;;;4379127;32;20111;-64
2022/02/01 10:47:41;;;;;;;6.28;3.97;;;;;;;;;;4392830;32;20066;-65
2022/02/01 10:50:12;;;;;;;;;;;;;;;;;;4379623;32;20150;-63
2022/02/01 10:52:49;;;;;;;5.37;4.07;;;;;;;;;;4379265;32;19971;-64
2022/02/01 10:55:19;;;;;;;6.57;4.50;;;;;;;;;;4366305;32;20483;-64
2022/02/01 10:57:46;;;;;;;5.45;4.12;;;;;;;;;;4366181;32;20102;-64
2022/02/01 11:00:16;;;;;;;7.03;4.00;;;;;;;;;;4366193;32;20117;-62
2022/02/01 11:02:44;;;;;;;6.20;4.57;;;;;;;;;;4392363;32;20078;-63
2022/02/01 11:05:16;;;;;;;7.12;4.53;;;;;;;;;;4354503;32;20097;-63
2022/02/01 11:07:42;;;;;;;5.68;4.35;;;;;;;;;;4379222;32;20081;-63
2022/02/01 11:10:10;;;;;;;6.35;4.10;;;;;;;;;;4365771;32;20081;-62
2022/02/01 11:12:39;;;;;;;5.28;3.95;;;;;;;;;;4367339;32;20125;-62
2022/02/01 11:15:18;;;;;;;5.87;3.92;;;;;;;;;;4368459;32;20146;-63
2022/02/01 11:17:47;;;;;;;5.50;3.95;;;;;;;;;;4381118;32;20085;-63
2022/02/01 11:20:29;;;;;;;5.00;3.80;;;;;;;;;;4368507;32;20078;-63
2022/02/01 11:23:05;;;;;;;7.07;4.10;;;;;;;;;;4367240;32;20212;-63
2022/02/01 11:25:48;;;;;;;6.37;4.10;;;;;;;;;;4380918;32;20104;-62
2022/02/01 11:31:29;;;;;;;5.90;4.30;;;;;;;;;;4353175;32;20181;-64
2022/02/01 11:34:01;;;;;;;5.60;3.70;;;;;;;;;;4367854;32;20070;-62
2022/02/01 11:36:55;;;;;;;6.50;4.07;;;;;;;;;;4366803;32;20520;-64
2022/02/01 11:39:24;;;;;;;6.28;4.10;;;;;;;;;;4367765;32;20166;-64
2022/02/01 11:41:53;;;;;;;6.53;4.18;;;;;;;;;;4394402;32;20065;-64
2022/02/01 11:44:26;;;;;;;5.60;4.12;;;;;;;;;;4366567;32;20085;-63
2022/02/01 11:47:16;;;;;;;5.65;4.30;;;;;;;;;;4380460;32;20069;-63
2022/02/01 11:50:00;;;;;;;6.78;4.28;;;;;;;;;;4366925;32;20530;-64
2022/02/01 11:52:28;;;;;;;5.80;4.15;;;;;;;;;;4368742;32;20423;-64
2022/02/01 11:55:04;;;;;;;5.82;3.53;;;;;;;;;;4367402;32;20516;-63
2022/02/01 11:57:32;;;;;;;5.53;3.83;;;;;;;;;;4367022;32;20089;-63
2022/02/01 12:00:03;;;;;;;4.97;3.53;;;;;;;;;;4354725;32;20073;-64
2022/02/01 12:02:39;;;;;;;5.55;4.28;;;;;;;;;;4378469;32;20132;-63
2022/02/01 12:05:28;;;;;;;4.12;3.35;;;;;;;;;;4379975;32;20066;-63
2022/02/01 12:08:11;;;;;;;4.87;3.90;;;;;;;;;;4379695;32;20524;-66
2022/02/01 12:10:53;;;;;;;5.12;3.70;;;;;;;;;;4354057;32;20083;-65
2022/02/01 12:13:21;;;;;;;5.70;3.90;;;;;;;;;;4365769;32;20081;-66
2022/02/01 12:15:51;;;;;;;5.05;3.90;;;;;;;;;;4366522;32;20522;-63
2022/02/01 12:18:34;;;;;;;5.95;4.25;;;;;;;;;;4367123;32;20094;-62
2022/02/01 12:21:14;;;;;;;4.50;3.37;;;;;;;;;;4366268;32;20078;-63
2022/02/01 12:23:49;;;;;;;5.50;4.25;;;;;;;;;;4355453;32;20085;-62
2022/02/01 12:26:20;;;;;;;4.93;4.10;;;;;;;;;;4379083;32;20210;-63
2022/02/01 12:28:51;;;;;;;5.37;3.80;;;;;;;;;;4379430;32;20147;-63
2022/02/01 12:31:19;;;;;;;5.37;4.32;;;;;;;;;;4365726;32;20080;-63
2022/02/01 12:33:51;;;;;;;5.00;3.60;;;;;;;;;;4378256;32;20084;-63
2022/02/01 12:36:25;;;;;;;5.75;4.20;;;;;;;;;;4378364;32;20081;-63
2022/02/01 12:39:18;;;;;;;6.18;4.07;;;;;;;;;;4366654;32;20074;-63
2022/02/01 12:42:16;;;;;;;5.35;4.10;;;;;;;;;;4382391;32;20092;-63
2022/02/01 12:47:20;;;;;;;7.18;4.32;;;;;;;;;;4379421;32;20400;-63
2022/02/01 12:49:51;;;;;;;4.82;3.75;;;;;;;;;;4365792;32;20081;-62
2022/02/01 12:52:25;;;;;;;4.85;4.07;;;;;;;;;;4365405;32;20073;-66
2022/02/01 12:55:13;;;;;;;5.15;3.95;;;;;;;;;;4365367;32;20496;-64
2022/02/01 12:57:42;;;;;;;6.50;4.00;;;;;;;;;;4353545;32;20512;-63
2022/02/01 13:00:17;;;;;;;5.18;3.60;;;;;;;;;;4365589;32;20146;-63
2022/02/01 13:02:45;;;;;;;6.10;3.97;;;;;;;;;;4352510;32;20085;-62
2022/02/01 13:05:15;;;;;;;6.62;3.90;;;;;;;;;;4352515;32;20088;-64
2022/02/01 13:16:24;;;;;;;6.77;4.10;;;;;;;;;;4366624;32;20078;-63
2022/02/01 13:21:36;;;;;;;5.75;4.25;;;;;;;;;;4364888;32;20094;-63
2022/02/01 13:24:04;;;;;;;5.15;3.92;;;;;;;;;;4364819;32;20087;-63
2022/02/01 13:26:37;;;;;;;5.22;4.30;;;;;;;;;;4352669;32;20066;-64
2022/02/01 13:29:05;;;;;;;5.20;3.65;;;;;;;;;;4377692;32;20082;-63
2022/02/01 13:31:33;;;;;;;5.55;4.30;;;;;;;;;;4352477;32;20082;-63
2022/02/01 13:34:04;;;;;;;6.37;4.50;;;;;;;;;;4364633;32;20198;-63
2022/02/01 13:36:33;;;;;;;5.95;4.40;;;;;;;;;;4365127;32;20081;-63
2022/02/01 13:39:02;;;;;;;5.65;4.25;;;;;;;;;;4377058;32;20085;-64
2022/02/01 13:41:30;;;;;;;5.45;4.37;;;;;;;;;;4364446;32;20148;-64
2022/02/01 13:44:01;;;;;;;6.60;4.60;;;;;;;;;;4377387;32;20573;-63
2022/02/01 13:46:32;;;;;;;5.78;4.40;;;;;;;;;;4376996;32;20145;-64
2022/02/01 13:49:02;;;;;;;5.37;4.30;;;;;;;;;;4365381;32;20614;-62
2022/02/01 13:51:28;;;;;;;5.85;4.05;;;;;;;;;;4380389;32;20163;-63
2022/02/01 13:54:06;;;;;;;5.65;4.68;;;;;;;;;;4379825;32;20174;-62
2022/02/01 13:56:43;;;;;;;5.20;4.35;;;;;;;;;;4380140;32;20095;-63
2022/02/01 13:59:12;;;;;;;5.35;4.35;;;;;;;;;;4368031;32;20494;-64
2022/02/01 14:01:42;;;;;;;5.35;3.60;;;;;;;;;;4354846;32;20089;-63
2022/02/01 14:04:12;;;;;;;5.10;3.78;;;;;;;;;;4353976;32;20085;-63
2022/02/01 14:06:55;;;;;;;7.82;4.18;;;;;;;;;;4393715;32;20132;-63
2022/02/01 14:28:21;;;;;;;5.87;3.92;;;;;;;;;;4379290;32;20581;-64
2022/02/01 14:36:19;;;;;;;6.82;4.97;;;;;;;;;;4393361;32;20078;-64
2022/02/01 14:46:40;;;;;;;7.18;5.28;;;;;;;;;;4379002;32;20058;-64
2022/02/01 14:49:07;;;;;;;6.28;5.00;;;;;;;;;;4366785;32;20109;-64
2022/02/01 14:51:33;;;;;;;7.10;4.85;;;;;;;;;;4379190;32;20101;-64
2022/02/01 14:54:00;;;;;;;7.03;4.97;;;;;;;;;;4366580;32;20463;-64
2022/02/01 14:56:33;;;;;;;7.47;5.68;;;;;;;;;;4393072;32;20100;-63
2022/02/01 15:04:59;;;;;;;7.50;5.18;;;;;;;;;;4381517;32;20166;-64
2022/02/01 15:07:46;;;;;;;8.90;5.53;;;;;;;;;;4356930;32;20103;-64
2022/02/01 15:12:59;;;;;;;7.45;4.97;;;;;;;;;;4368497;32;20081;-63
2022/02/01 15:15:26;;;;;;;8.10;6.12;;;;;;;;;;4366388;32;20079;-64
2022/02/01 15:17:54;;;;;;;7.05;5.20;;;;;;;;;;4366339;32;20080;-64
2022/02/01 15:20:21;;;;;;;8.50;5.30;;;;;;;;;;4383120;32;20073;-66
2022/02/01 15:22:48;;;;;;;7.43;5.32;;;;;;;;;;4387775;32;20078;-64
2022/02/01 15:25:14;;;;;;;8.68;5.65;;;;;;;;;;4376294;32;20077;-64
2022/02/01 15:27:41;;;;;;;7.03;5.62;;;;;;;;;;4374053;32;20463;-64
2022/02/01 15:30:08;;;;;;;6.32;4.90;;;;;;;;;;4379642;32;20066;-64
2022/02/01 15:32:35;;;;;;;7.60;5.72;;;;;;;;;;4378612;32;20082;-64
2022/02/01 15:35:04;;;;;;;7.90;5.07;;;;;;;;;;4378967;32;20168;-62
2022/02/01 15:37:33;;;;;;;8.25;5.03;;;;;;;;;;4366097;32;20180;-63
2022/02/01 15:59:21;;;;;;;7.68;5.50;;;;;;;;;;4392020;32;20077;-65
2022/02/01 16:01:58;;;;;;;6.93;5.07;;;;;;;;;;4378051;32;20085;-64
2022/02/01 16:04:25;;;;;;;;;;;;;;;;;;4378075;32;20505;-63
2022/02/01 16:07:02;;;;;;;8.45;5.60;;;;;;;;;;4378333;32;19977;-63
2022/02/01 16:09:47;;;;;;;7.57;6.10;;;;;;;;;;4378332;32;20089;-63
2022/02/01 16:12:19;;;;;;;7.72;5.62;;;;;;;;;;4377649;32;20074;-63
2022/02/01 16:14:46;;;;;;;8.82;5.62;;;;;;;;;;4391822;32;20449;-63
2022/02/01 16:17:13;;;;;;;7.12;5.35;;;;;;;;;;4365190;32;20152;-64
2022/02/01 16:19:40;;;;;;;9.13;5.87;;;;;;;;;;4391674;32;20058;-63
2022/02/01 16:22:07;;;;;;;8.02;6.15;;;;;;;;;;4365343;32;20186;-64
2022/02/01 16:24:36;;;;;;;7.35;5.80;;;;;;;;;;4365114;32;20076;-65
2022/02/01 16:27:07;;;;;;;11.52;6.00;;;;;;;;;;4377888;32;20146;-64
2022/02/01 16:29:34;;;;;;;6.37;5.40;;;;;;;;;;4365418;32;20111;-63
2022/02/01 16:32:01;;;;;;;8.80;5.78;;;;;;;;;;4377686;32;20073;-64
2022/02/01 16:34:28;;;;;;;8.00;5.90;;;;;;;;;;4364850;32;20496;-65
2022/02/01 16:36:56;;;;;;;8.02;5.75;;;;;;;;;;4377513;32;20080;-63
2022/02/01 16:39:24;;;;;;;7.72;5.55;;;;;;;;;;4377689;32;20086;-65
2022/02/01 16:42:00;;;;;;;9.00;6.03;;;;;;;;;;4377623;32;20112;-63
2022/02/01 16:44:29;;;;;;;9.57;6.05;;;;;;;;;;4364989;32;20073;-63
2022/02/01 16:46:56;;;;;;;9.48;6.22;;;;;;;;;;4391709;32;20090;-64
2022/02/01 16:49:23;;;;;;;7.53;5.32;;;;;;;;;;4377480;32;20495;-64
2022/02/01 16:51:51;;;;;;;7.75;5.65;;;;;;;;;;4377371;32;20135;-63
2022/02/01 16:54:28;;;;;;;7.95;5.30;;;;;;;;;;4364463;32;20567;-62
2022/02/01 16:56:58;;;;;;;9.65;6.43;;;;;;;;;;4365950;32;20481;-63
2022/02/01 16:59:26;;;;;;;6.93;5.53;;;;;;;;;;4377005;32;20513;-65
2022/02/01 17:01:56;;;;;;;7.40;5.12;;;;;;;;;;4377006;32;20090;-63
2022/02/01 17:04:24;;;;;;;6.40;4.90;;;;;;;;;;4364674;32;20093;-63
2022/02/01 17:06:51;;;;;;;8.23;5.35;;;;;;;;;;4377093;32;20101;-64
2022/02/01 17:09:19;;;;;;;8.70;5.62;;;;;;;;;;4377287;32;20525;-62
2022/02/01 17:17:07;;;;;;;7.28;4.93;;;;;;;;;;4379315;32;20525;-63
2022/02/01 17:22:19;;;;;;;6.30;4.37;;;;;;;;;;4366855;32;20101;-63
2022/02/01 17:24:47;;;;;;;6.68;4.80;;;;;;;;;;4393830;32;20062;-63
2022/02/01 17:27:14;;;;;;;7.75;4.70;;;;;;;;;;4380149;32;20657;-63
2022/02/01 17:29:42;;;;;;;9.10;5.28;;;;;;;;;;4380302;32;20073;-64
2022/02/01 17:32:08;;;;;;;6.47;4.55;;;;;;;;;;4367608;32;20476;-64
2022/02/01 17:34:35;;;;;;;6.30;4.18;;;;;;;;;;4367822;32;20085;-63
2022/02/01 17:37:02;;;;;;;6.32;4.72;;;;;;;;;;4380498;32;20086;-63
2022/02/01 17:39:29;;;;;;;6.97;4.62;;;;;;;;;;4380511;32;20086;-63
2022/02/01 17:41:55;;;;;;;6.57;4.82;;;;;;;;;;4367348;32;20508;-63